Balmoral — GRPM — position and weather

sailwx.info

Track history (hours):
 
Tides and Currents Weather Stations Pressure Air Temp Water Temp Dewpoint Dewpoint Depression Visibility Wind Speed Wind Dir Waves Ship Positions

Balmoral

Operator: Waverly Excursions Ltd

Last reported at 2016-Oct-16 17:33 UTC. Time now 2017-Apr-28 02:26 UTC.
Position N 55°56' W 004°37'.
Warning: this ship's position is months out of date.

Length 73 m; draft 2 m.

Type: Ship. MMSI: 232001540.

Date/timePositionNaut miles runAvg speedWind from/ knotsBaromVisibWave heightAir tempDewpointWater temp
2016-Oct-16 17:33N 55°56' W 004°37'8 1.5
2016-Oct-16 12:08N 55°57' W 004°52'4 6.0
2016-Oct-16 11:30N 55°57' W 004°45'0 0.0
2016-Oct-16 10:33N 55°57' W 004°45'1211.8
2016-Oct-16 09:33N 55°54' W 004°25'3 0.2
2016-Oct-15 19:33N 55°56' W 004°29'1 0.5
2016-Oct-15 17:33N 55°55' W 004°28'10 9.8
2016-Oct-15 16:33N 55°57' W 004°45'3 0.6
2016-Oct-15 11:29N 55°59' W 004°49'11 0.2
2016-Oct-13 14:33N 55°56' W 004°31'1010.1
2016-Oct-13 13:33N 55°58' W 004°48'1311.8
2016-Oct-13 12:28N 55°46' W 004°58'7512.7
2016-Oct-13 06:33N 54°32' W 005°03'268 7.9
2016-Oct-11 20:28N 50°06' W 004°07'1413.7
2016-Oct-11 19:29N 50°09' W 003°46'2613.5
2016-Oct-11 17:33N 50°18' W 003°09'48 5.9
2016-Oct-11 09:31N 50°34' W 001°58'7512.6
2016-Oct-11 03:34N 50°33' E 000°01'5614.0
2016-Oct-10 23:33N 50°60' E 001°18'1414.5
2016-Oct-10 22:34N 51°09' E 001°36'47 5.9
2016-Oct-10 14:33N 51°27' E 000°26'3 2.7
2016-Oct-10 13:34N 51°27' E 000°22'0 0.0
2016-Oct-10 12:34N 51°27' E 000°22'0 0.0
2016-Oct-10 09:34N 51°27' E 000°22'0 0.0
2016-Oct-10 07:33N 51°27' E 000°22'0 0.0
2016-Oct-10 01:33N 51°27' E 000°22'0 0.0
2016-Oct-10 00:34N 51°27' E 000°22'0 0.0
2016-Oct-09 22:33N 51°27' E 000°22'3 0.7
2016-Oct-09 17:33N 51°27' E 000°17'7 6.5
2016-Oct-09 16:34N 51°29' E 000°27'1010.2
2016-Oct-09 15:33N 51°31' E 000°43'5 4.9
2016-Oct-09 14:33N 51°26' E 000°44'5 2.4
2016-Oct-09 12:33N 51°31' E 000°43'1211.8
2016-Oct-09 11:33N 51°27' E 000°25'17 8.3
2016-Oct-09 09:28N 51°30' W 000°02'40 2.5
2016-Oct-08 17:33N 51°22' E 001°02'0 0.0
2016-Oct-08 16:33N 51°22' E 001°02'0 0.0
2016-Oct-08 15:33N 51°22' E 001°02'6 5.8
2016-Oct-08 14:34N 51°26' E 000°56'9 8.9
2016-Oct-08 13:33N 51°31' E 000°43'18 6.0
2016-Oct-08 10:33N 51°28' E 000°15'16 0.9
2016-Oct-07 16:33N 51°30' E 000°40'17 8.4
2016-Oct-07 14:34N 51°29' E 000°13'13 2.5
2016-Oct-07 09:34N 51°30' E 000°33'8 2.5
2016-Oct-07 06:34N 51°27' E 000°22'0 0.0
2016-Oct-07 03:34N 51°27' E 000°22'0 0.0
2016-Oct-07 02:34N 51°27' E 000°22'0 0.0
2016-Oct-07 01:33N 51°27' E 000°22'0 0.0
2016-Oct-06 23:34N 51°27' E 000°22'0 0.0
2016-Oct-06 22:34N 51°27' E 000°22'0 0.0
2016-Oct-06 21:33N 51°27' E 000°22'0 0.0
2016-Oct-06 20:34N 51°27' E 000°22'0 0.0
2016-Oct-06 19:33N 51°27' E 000°22'  
Track history (hours):
 
Tides and Currents Weather Stations Pressure Air Temp Water Temp Dewpoint Dewpoint Depression Visibility Wind Speed Wind Dir Waves Ship Positions

Balmoral

Operator: Waverly Excursions Ltd

Last reported at 2016-Oct-16 17:33 UTC. Time now 2017-Apr-28 02:26 UTC.
Position N 55°56' W 004°37'.
Warning: this ship's position is months out of date.

Length 73 m; draft 2 m.

Type: Ship. MMSI: 232001540.

Date/timePositionNaut miles runAvg speedWind from/ knotsBaromVisibWave heightAir tempDewpointWater temp
2016-Oct-16 17:33N 55°56' W 004°37'8 1.5
2016-Oct-16 12:08N 55°57' W 004°52'4 6.0
2016-Oct-16 11:30N 55°57' W 004°45'0 0.0
2016-Oct-16 10:33N 55°57' W 004°45'1211.8
2016-Oct-16 09:33N 55°54' W 004°25'3 0.2
2016-Oct-15 19:33N 55°56' W 004°29'1 0.5
2016-Oct-15 17:33N 55°55' W 004°28'10 9.8
2016-Oct-15 16:33N 55°57' W 004°45'3 0.6
2016-Oct-15 11:29N 55°59' W 004°49'11 0.2
2016-Oct-13 14:33N 55°56' W 004°31'1010.1
2016-Oct-13 13:33N 55°58' W 004°48'1311.8
2016-Oct-13 12:28N 55°46' W 004°58'7512.7
2016-Oct-13 06:33N 54°32' W 005°03'268 7.9
2016-Oct-11 20:28N 50°06' W 004°07'1413.7
2016-Oct-11 19:29N 50°09' W 003°46'2613.5
2016-Oct-11 17:33N 50°18' W 003°09'48 5.9
2016-Oct-11 09:31N 50°34' W 001°58'7512.6
2016-Oct-11 03:34N 50°33' E 000°01'5614.0
2016-Oct-10 23:33N 50°60' E 001°18'1414.5
2016-Oct-10 22:34N 51°09' E 001°36'47 5.9
2016-Oct-10 14:33N 51°27' E 000°26'3 2.7
2016-Oct-10 13:34N 51°27' E 000°22'0 0.0
2016-Oct-10 12:34N 51°27' E 000°22'0 0.0
2016-Oct-10 09:34N 51°27' E 000°22'0 0.0
2016-Oct-10 07:33N 51°27' E 000°22'0 0.0
2016-Oct-10 01:33N 51°27' E 000°22'0 0.0
2016-Oct-10 00:34N 51°27' E 000°22'0 0.0
2016-Oct-09 22:33N 51°27' E 000°22'3 0.7
2016-Oct-09 17:33N 51°27' E 000°17'7 6.5
2016-Oct-09 16:34N 51°29' E 000°27'1010.2
2016-Oct-09 15:33N 51°31' E 000°43'5 4.9
2016-Oct-09 14:33N 51°26' E 000°44'5 2.4
2016-Oct-09 12:33N 51°31' E 000°43'1211.8
2016-Oct-09 11:33N 51°27' E 000°25'17 8.3
2016-Oct-09 09:28N 51°30' W 000°02'40 2.5
2016-Oct-08 17:33N 51°22' E 001°02'0 0.0
2016-Oct-08 16:33N 51°22' E 001°02'0 0.0
2016-Oct-08 15:33N 51°22' E 001°02'6 5.8
2016-Oct-08 14:34N 51°26' E 000°56'9 8.9
2016-Oct-08 13:33N 51°31' E 000°43'18 6.0
2016-Oct-08 10:33N 51°28' E 000°15'16 0.9
2016-Oct-07 16:33N 51°30' E 000°40'17 8.4
2016-Oct-07 14:34N 51°29' E 000°13'13 2.5
2016-Oct-07 09:34N 51°30' E 000°33'8 2.5
2016-Oct-07 06:34N 51°27' E 000°22'0 0.0
2016-Oct-07 03:34N 51°27' E 000°22'0 0.0
2016-Oct-07 02:34N 51°27' E 000°22'0 0.0
2016-Oct-07 01:33N 51°27' E 000°22'0 0.0
2016-Oct-06 23:34N 51°27' E 000°22'0 0.0
2016-Oct-06 22:34N 51°27' E 000°22'0 0.0
2016-Oct-06 21:33N 51°27' E 000°22'0 0.0
2016-Oct-06 20:34N 51°27' E 000°22'0 0.0
2016-Oct-06 19:33N 51°27' E 000°22'  

Dump ship's entire track history